createdAt,value
2017-03-30T00:05:40.305Z,95.9
2017-03-30T00:15:50.465Z,96.1
2017-03-30T00:26:00.643Z,95.7
2017-03-30T00:36:10.888Z,95.5
2017-03-30T00:46:21.052Z,95.7
2017-03-30T00:56:31.197Z,96.1
2017-03-30T01:06:41.360Z,95.9
2017-03-30T01:16:51.589Z,95.4
2017-03-30T01:27:01.799Z,95.2
2017-03-30T01:37:11.961Z,93
2017-03-30T01:47:22.157Z,92
2017-03-30T01:57:32.371Z,90.8
2017-03-30T02:07:42.574Z,90.2
2017-03-30T02:17:52.793Z,89.7
2017-03-30T02:28:02.941Z,88.9
2017-03-30T02:38:13.088Z,88.3
2017-03-30T02:48:23.230Z,87.8
2017-03-30T02:58:33.386Z,88.6
2017-03-30T03:08:43.563Z,89
2017-03-30T03:18:53.767Z,89.9
2017-03-30T03:29:03.938Z,91.2
2017-03-30T03:39:14.088Z,92.1
2017-03-30T03:49:24.278Z,91.7
2017-03-30T03:59:34.488Z,92.7
2017-03-30T04:09:44.695Z,92.8
2017-03-30T04:19:54.857Z,93.5
2017-03-30T04:30:05.049Z,94.3
2017-03-30T04:40:15.260Z,93.5
2017-03-30T04:50:25.506Z,94.1
2017-03-30T05:00:35.723Z,94.2
2017-03-30T05:10:45.944Z,93.3
2017-03-30T05:20:56.119Z,93.1
2017-03-30T05:31:06.266Z,92.5
2017-03-30T05:41:16.398Z,92
2017-03-30T05:51:26.580Z,92.3
2017-03-30T06:01:36.737Z,92
2017-03-30T06:11:46.819Z,91.5
2017-03-30T06:21:56.881Z,90.9
2017-03-30T06:32:06.910Z,90.3
2017-03-30T06:42:16.829Z,89
2017-03-30T06:52:26.748Z,87.4
2017-03-30T07:02:36.549Z,86.9
2017-03-30T07:12:46.244Z,85.4
2017-03-30T07:22:55.822Z,84.6
2017-03-30T07:33:05.316Z,82.9
2017-03-30T07:43:14.745Z,82.9
2017-03-30T07:53:24.078Z,81.6
2017-03-30T08:03:33.397Z,81.7
2017-03-30T08:13:42.740Z,78.8
2017-03-30T08:23:51.824Z,76.9
2017-03-30T08:34:00.611Z,74
2017-03-30T08:44:09.145Z,70.5
2017-03-30T08:54:17.445Z,69
2017-03-30T09:04:25.755Z,67.8
2017-03-30T09:14:34.049Z,67.4
2017-03-30T09:24:42.429Z,63.8
2017-03-30T09:34:50.726Z,61.6
2017-03-30T09:44:59.024Z,61.4
2017-03-30T09:55:07.277Z,61.1
2017-03-30T10:05:15.637Z,60.5
2017-03-30T10:15:23.896Z,57.9
2017-03-30T10:25:32.090Z,56
2017-03-30T10:35:40.180Z,54
2017-03-30T10:45:48.193Z,53.8
2017-03-30T10:55:56.236Z,53.2
2017-03-30T11:06:04.307Z,53
2017-03-30T11:16:12.301Z,50.1
2017-03-30T11:26:20.347Z,49.7
2017-03-30T11:36:28.241Z,50.1
2017-03-30T11:46:36.113Z,47.1
2017-03-30T11:56:43.966Z,46.8
2017-03-30T12:06:51.833Z,46
2017-03-30T12:16:59.585Z,47.7
2017-03-30T12:27:07.335Z,45.6
2017-03-30T12:37:14.985Z,45.2
2017-03-30T12:47:22.565Z,43.4
2017-03-30T12:57:30.114Z,43.3
2017-03-30T13:07:37.633Z,43.4
2017-03-30T13:17:45.168Z,44.5
2017-03-30T13:27:53.064Z,45.2
2017-03-30T13:38:01.192Z,45.8
2017-03-30T13:48:09.541Z,46.9
2017-03-30T13:58:17.512Z,45.4
2017-03-30T14:08:25.492Z,42.3
2017-03-30T14:18:33.357Z,43.8
2017-03-30T14:28:41.089Z,41.8
2017-03-30T14:38:48.632Z,41.9
2017-03-30T14:48:56.271Z,41.1
2017-03-30T14:59:03.902Z,43.5
2017-03-30T15:09:11.774Z,43.7
2017-03-30T15:19:19.881Z,42.4
2017-03-30T15:29:28.037Z,44
2017-03-30T15:39:36.233Z,44.2
2017-03-30T15:49:44.176Z,44.6
2017-03-30T15:59:52.090Z,44.2
2017-03-30T16:10:00.320Z,44.5
2017-03-30T16:20:08.725Z,46
2017-03-30T16:30:17.246Z,44.9
2017-03-30T16:40:25.822Z,46.2
2017-03-30T16:50:34.488Z,46
2017-03-30T17:00:43.174Z,46.6
2017-03-30T17:10:51.869Z,46.6
2017-03-30T17:21:00.636Z,46.8
2017-03-30T17:31:09.500Z,47.3
2017-03-30T17:41:18.460Z,47.5
2017-03-30T17:51:27.502Z,47.2
2017-03-30T18:01:36.657Z,46.8
2017-03-30T18:11:45.838Z,47
2017-03-30T18:21:55.074Z,47.9
2017-03-30T18:32:04.314Z,48.2
2017-03-30T18:42:13.600Z,48.9
2017-03-30T18:52:22.923Z,48.7
2017-03-30T19:02:32.288Z,48.9
2017-03-30T19:12:41.628Z,48.5
2017-03-30T19:33:00.403Z,50
2017-03-30T19:43:09.808Z,49.9
2017-03-30T19:53:19.274Z,52.1
2017-03-30T20:03:28.727Z,53.3
2017-03-30T20:13:38.198Z,53.3
2017-03-30T20:23:47.710Z,53.8
2017-03-30T20:33:57.186Z,55
2017-03-30T20:44:06.706Z,56
2017-03-30T20:54:16.264Z,56.4
2017-03-30T21:04:25.857Z,57.7
2017-03-30T21:14:35.487Z,58
2017-03-30T21:24:45.102Z,58.3
2017-03-30T21:34:54.773Z,58.2
2017-03-30T21:45:04.485Z,58.8
2017-03-30T22:05:23.958Z,60.4
2017-03-30T22:15:33.771Z,61.8
2017-03-30T22:25:43.486Z,62.3
2017-03-30T22:35:53.230Z,62.7
2017-03-30T22:46:02.984Z,61.6
2017-03-30T22:56:12.759Z,61.8
2017-03-30T23:06:22.564Z,63.4
2017-03-30T23:16:32.446Z,64
2017-03-30T23:26:42.334Z,66.1
2017-03-30T23:36:52.259Z,67.4
2017-03-30T23:47:02.192Z,68.1
2017-03-30T23:57:12.137Z,68.4
